Time;durP1;ratioP1;P1;durP2;ratioP2;P2;SDS_P1;SDS_P2;PMS_P1;PMS_P2;Temp;Humidity;BMP_temperature;BMP_pressure;BME280_temperature;BME280_humidity;BME280_pressure;Samples;Min_cycle;Max_cycle;Signal;HPM_P1;HPM_P2
2022/04/24 00:00:38;;;;;;;50.85;28.45;;;7.60;99.90;;;;;;5034997;28;20026;-82
2022/04/24 00:03:04;;;;;;;46.85;25.02;;;7.60;99.90;;;;;;5044067;28;20036;-84
2022/04/24 00:05:29;;;;;;;46.70;24.35;;;7.50;99.90;;;;;;5023051;28;20049;-82
2022/04/24 00:07:55;;;;;;;47.85;26.10;;;7.50;99.90;;;;;;5035597;28;20066;-82
2022/04/24 00:10:21;;;;;;;43.58;22.92;;;7.60;99.90;;;;;;5049488;28;20026;-81
2022/04/24 00:12:48;;;;;;;39.30;20.80;;;7.60;99.90;;;;;;5039610;28;20033;-82
2022/04/24 00:15:14;;;;;;;49.60;25.27;;;7.60;99.90;;;;;;5027027;28;20490;-82
2022/04/24 00:17:40;;;;;;;45.25;25.23;;;7.60;99.90;;;;;;5046669;28;20095;-82
2022/04/24 00:20:06;;;;;;;40.97;23.10;;;7.60;99.90;;;;;;5051186;28;20087;-82
2022/04/24 00:22:31;;;;;;;42.00;25.17;;;7.70;99.90;;;;;;5050019;28;20483;-82
2022/04/24 00:24:57;;;;;;;48.95;23.27;;;7.70;99.90;;;;;;5018368;28;20061;-82
2022/04/24 00:27:22;;;;;;;42.85;23.63;;;7.60;99.90;;;;;;5052499;28;20461;-84
2022/04/24 00:29:51;;;;;;;41.92;21.88;;;7.70;99.90;;;;;;5031749;28;20041;-84
2022/04/24 00:32:17;;;;;;;43.63;23.38;;;7.70;99.90;;;;;;5051714;28;20025;-84
2022/04/24 00:34:42;;;;;;;45.33;21.75;;;7.70;99.90;;;;;;5063442;28;20036;-84
2022/04/24 00:37:08;;;;;;;38.72;21.48;;;7.80;99.90;;;;;;5072916;28;20032;-84
2022/04/24 00:39:34;;;;;;;38.65;19.88;;;7.80;99.90;;;;;;5054555;28;20056;-82
2022/04/24 00:42:00;;;;;;;39.63;20.50;;;7.80;99.90;;;;;;5053267;28;20036;-82
2022/04/24 00:44:27;;;;;;;41.08;22.65;;;7.90;99.90;;;;;;5047697;28;20021;-82
2022/04/24 00:46:57;;;;;;;45.20;23.25;;;7.90;99.90;;;;;;5043322;28;20021;-84
2022/04/24 00:49:23;;;;;;;37.13;21.23;;;7.90;99.90;;;;;;5039200;28;20485;-83
2022/04/24 00:51:49;;;;;;;39.55;19.35;;;7.90;99.90;;;;;;5039180;28;20079;-84
2022/04/24 00:54:15;;;;;;;42.85;21.60;;;7.90;99.90;;;;;;5045645;28;20043;-82
2022/04/24 00:56:42;;;;;;;48.38;21.77;;;7.80;99.90;;;;;;5037089;28;20029;-82
2022/04/24 00:59:09;;;;;;;41.60;21.48;;;7.90;99.90;;;;;;5048446;28;20772;-82
2022/04/24 01:01:36;;;;;;;40.28;20.02;;;7.90;99.90;;;;;;5050003;28;20041;-82
2022/04/24 01:04:05;;;;;;;44.08;23.33;;;8.00;99.90;;;;;;5046875;28;20098;-84
2022/04/24 01:06:41;;;;;;;46.83;21.08;;;8.00;99.90;;;;;;5046543;28;20484;-84
2022/04/24 01:09:18;;;;;;;42.85;22.58;;;8.00;99.90;;;;;;5046690;28;20497;-84
2022/04/24 01:11:50;;;;;;;46.38;22.23;;;8.10;99.90;;;;;;5030708;28;20038;-84
2022/04/24 01:14:16;;;;;;;44.15;22.42;;;8.10;99.90;;;;;;5028737;28;20049;-84
2022/04/24 01:16:45;;;;;;;46.55;23.83;;;8.10;99.90;;;;;;5051840;28;20024;-83
2022/04/24 01:19:11;;;;;;;46.28;23.50;;;8.20;99.90;;;;;;5059718;28;20045;-83
2022/04/24 01:21:39;;;;;;;43.47;23.98;;;8.10;99.90;;;;;;5065561;28;20020;-83
2022/04/24 01:24:06;;;;;;;46.00;23.20;;;8.10;99.90;;;;;;5061444;28;20041;-85
2022/04/24 01:26:32;;;;;;;46.95;23.13;;;8.10;99.90;;;;;;5050972;28;20079;-84
2022/04/24 01:28:57;;;;;;;51.90;25.30;;;8.10;99.90;;;;;;5036097;28;20116;-84
2022/04/24 01:31:23;;;;;;;48.95;23.33;;;8.00;99.90;;;;;;5057186;28;20454;-84
2022/04/24 01:33:49;;;;;;;51.88;23.58;;;8.00;99.90;;;;;;5076502;28;20033;-85
2022/04/24 01:36:14;;;;;;;48.83;22.08;;;8.10;99.90;;;;;;5066335;28;20761;-82
2022/04/24 01:38:41;;;;;;;48.53;24.65;;;8.10;99.90;;;;;;5068497;28;20791;-82
2022/04/24 01:41:07;;;;;;;52.03;24.92;;;8.00;99.90;;;;;;5034554;28;20052;-82
2022/04/24 01:43:33;;;;;;;47.30;23.98;;;7.90;99.90;;;;;;5049156;28;20526;-82
2022/04/24 01:45:58;;;;;;;53.95;24.55;;;7.90;99.90;;;;;;5062981;28;20056;-82
2022/04/24 01:48:24;;;;;;;48.85;24.35;;;7.90;99.90;;;;;;5063727;28;20331;-82
2022/04/24 01:50:54;;;;;;;54.15;26.02;;;8.00;99.90;;;;;;5070942;28;20064;-82
2022/04/24 01:53:19;;;;;;;54.70;28.45;;;8.00;99.90;;;;;;5058932;28;20024;-82
2022/04/24 01:55:46;;;;;;;50.90;24.50;;;8.00;99.90;;;;;;5053907;28;20033;-83
2022/04/24 01:58:11;;;;;;;51.35;25.45;;;8.00;99.90;;;;;;5050043;28;20071;-82
2022/04/24 02:00:37;;;;;;;55.85;26.60;;;8.00;99.90;;;;;;5053603;28;20460;-82
2022/04/24 02:03:03;;;;;;;57.65;26.40;;;8.00;99.90;;;;;;5044774;28;20033;-82
2022/04/24 02:05:28;;;;;;;67.57;30.33;;;8.00;99.90;;;;;;5036087;28;20029;-82
2022/04/24 02:07:54;;;;;;;66.40;27.77;;;8.00;99.90;;;;;;5014266;28;20045;-85
2022/04/24 02:10:19;;;;;;;70.35;30.13;;;7.90;99.90;;;;;;5042155;28;20061;-82
2022/04/24 02:12:46;;;;;;;65.13;30.35;;;7.80;99.90;;;;;;5056078;28;20754;-85
2022/04/24 02:15:12;;;;;;;72.43;30.23;;;7.70;99.90;;;;;;5036364;28;20029;-85
2022/04/24 02:17:37;;;;;;;70.55;30.15;;;7.70;99.90;;;;;;5040526;28;20036;-84
2022/04/24 02:20:04;;;;;;;74.45;33.03;;;7.60;99.90;;;;;;5041932;28;20032;-85
2022/04/24 02:22:34;;;;;;;76.45;36.15;;;7.60;99.90;;;;;;5052679;28;20040;-85
2022/04/24 02:25:00;;;;;;;69.72;30.63;;;7.60;99.90;;;;;;5011547;28;20110;-85
2022/04/24 02:27:26;;;;;;;73.07;32.70;;;7.60;99.90;;;;;;5039885;28;20060;-85
2022/04/24 02:29:51;;;;;;;87.47;34.25;;;7.60;99.90;;;;;;5036920;28;20064;-85
2022/04/24 02:32:17;;;;;;;80.57;32.60;;;7.50;99.90;;;;;;5030092;28;20041;-85
2022/04/24 02:34:43;;;;;;;79.88;32.35;;;7.60;99.90;;;;;;5045160;28;20033;-85
2022/04/24 02:37:08;;;;;;;86.35;35.55;;;7.60;99.90;;;;;;5029601;28;20059;-85
2022/04/24 02:39:35;;;;;;;92.50;36.85;;;7.50;99.90;;;;;;5040315;28;20025;-85
2022/04/24 02:42:01;;;;;;;92.43;36.35;;;7.50;99.90;;;;;;5045373;28;20044;-85
2022/04/24 02:44:27;;;;;;;85.68;35.00;;;7.50;99.90;;;;;;5048813;28;20360;-82
2022/04/24 02:46:53;;;;;;;97.35;38.58;;;7.50;99.90;;;;;;5031669;28;20018;-82
2022/04/24 02:49:18;;;;;;;87.53;33.95;;;7.50;99.90;;;;;;5030848;28;20037;-82
2022/04/24 02:51:44;;;;;;;90.72;38.47;;;7.60;99.90;;;;;;5042005;28;20040;-83
2022/04/24 02:54:10;;;;;;;87.70;35.00;;;7.60;99.90;;;;;;5047914;28;20038;-86
2022/04/24 02:56:36;;;;;;;93.70;36.25;;;7.60;99.90;;;;;;5041248;28;20024;-86
2022/04/24 02:59:02;;;;;;;111.85;40.90;;;7.60;99.90;;;;;;5051434;28;20045;-86
2022/04/24 03:01:30;;;;;;;105.28;40.67;;;7.50;99.90;;;;;;5053444;28;20103;-85
2022/04/24 03:03:59;;;;;;;109.10;38.97;;;7.50;99.90;;;;;;5060427;28;20104;-85
2022/04/24 03:06:25;;;;;;;114.30;42.00;;;7.50;99.90;;;;;;5079245;28;20025;-85
2022/04/24 03:08:50;;;;;;;105.40;41.28;;;7.50;99.90;;;;;;5063178;28;20078;-85
2022/04/24 03:11:16;;;;;;;117.50;41.42;;;7.60;99.90;;;;;;5054002;28;20045;-86
2022/04/24 03:13:42;;;;;;;121.63;44.13;;;7.60;99.90;;;;;;5071375;28;20112;-82
2022/04/24 03:16:09;;;;;;;116.97;43.78;;;7.50;99.90;;;;;;5071135;28;20200;-83
2022/04/24 03:18:35;;;;;;;120.97;43.80;;;7.50;99.90;;;;;;5064934;28;20029;-87
2022/04/24 03:21:01;;;;;;;124.50;43.33;;;7.40;99.90;;;;;;5088085;28;20088;-83
2022/04/24 03:23:27;;;;;;;152.15;49.17;;;7.50;99.90;;;;;;5061178;28;20548;-83
2022/04/24 03:25:53;;;;;;;158.73;47.17;;;7.50;99.90;;;;;;5092254;28;20048;-87
2022/04/24 03:28:18;;;;;;;180.13;51.30;;;7.50;99.90;;;;;;5042913;28;20066;-86
2022/04/24 03:30:44;;;;;;;131.02;42.00;;;7.50;99.90;;;;;;5068028;28;20032;-83
2022/04/24 03:33:10;;;;;;;151.80;46.75;;;7.50;99.90;;;;;;5052747;28;20591;-82
2022/04/24 03:35:36;;;;;;;168.20;48.17;;;7.50;99.90;;;;;;5069987;28;20033;-83
2022/04/24 03:38:03;;;;;;;174.57;53.63;;;7.50;99.90;;;;;;5072174;28;20115;-82
2022/04/24 03:40:29;;;;;;;160.95;50.47;;;7.50;99.90;;;;;;5088908;28;20032;-82
2022/04/24 03:42:54;;;;;;;164.90;54.90;;;7.50;99.90;;;;;;5055013;28;20044;-86
2022/04/24 03:45:20;;;;;;;191.30;57.67;;;7.50;99.90;;;;;;5046046;28;20057;-83
2022/04/24 03:47:51;;;;;;;184.63;49.45;;;7.50;99.90;;;;;;5077699;28;20029;-83
2022/04/24 03:50:19;;;;;;;192.13;59.80;;;7.60;99.90;;;;;;5051080;28;20028;-83
2022/04/24 03:52:44;;;;;;;185.57;57.65;;;7.60;99.90;;;;;;5055720;28;20040;-82
2022/04/24 03:55:10;;;;;;;206.85;57.92;;;7.60;99.90;;;;;;5031877;28;20030;-83
2022/04/24 03:57:35;;;;;;;231.98;63.58;;;7.60;99.90;;;;;;5045829;28;20029;-82
2022/04/24 04:00:02;;;;;;;199.05;63.13;;;7.70;99.90;;;;;;5055160;28;20072;-82
2022/04/24 04:02:28;;;;;;;193.93;60.40;;;7.70;99.90;;;;;;5049174;28;20915;-83
2022/04/24 04:04:53;;;;;;;212.07;60.75;;;7.70;99.90;;;;;;5049966;28;20033;-83
2022/04/24 04:07:19;;;;;;;193.32;58.97;;;7.70;99.90;;;;;;5033770;28;20032;-83
2022/04/24 04:09:44;;;;;;;189.73;55.03;;;7.70;99.90;;;;;;5049303;28;20484;-82
2022/04/24 04:12:13;;;;;;;227.75;63.63;;;7.70;99.90;;;;;;5043925;28;20033;-83
2022/04/24 04:14:38;;;;;;;192.20;57.75;;;7.70;99.90;;;;;;5047670;28;20055;-86
2022/04/24 04:17:05;;;;;;;168.95;50.42;;;7.70;99.90;;;;;;5058808;28;20037;-82
2022/04/24 04:19:30;;;;;;;138.30;43.88;;;7.60;99.90;;;;;;5049051;28;20073;-86
2022/04/24 04:21:56;;;;;;;131.52;43.50;;;7.70;99.90;;;;;;5046542;28;20381;-85
2022/04/24 04:24:22;;;;;;;94.30;32.67;;;7.70;99.90;;;;;;5050219;28;20866;-84
2022/04/24 04:26:47;;;;;;;74.53;27.80;;;7.60;99.90;;;;;;5045623;28;20474;-85
2022/04/24 04:29:13;;;;;;;64.93;21.20;;;7.60;99.90;;;;;;5063556;28;20042;-85
2022/04/24 04:31:39;;;;;;;45.15;17.70;;;7.50;99.90;;;;;;5054829;28;20087;-83
2022/04/24 04:34:05;;;;;;;62.97;23.80;;;7.50;99.90;;;;;;5060724;28;20029;-83
2022/04/24 04:36:33;;;;;;;39.97;16.27;;;7.40;99.90;;;;;;5055510;28;20397;-83
2022/04/24 04:39:02;;;;;;;42.60;16.23;;;7.40;99.90;;;;;;5049179;28;20036;-83
2022/04/24 04:41:27;;;;;;;29.63;11.75;;;7.30;99.90;;;;;;5062518;28;20044;-83
2022/04/24 04:43:53;;;;;;;22.27;9.00;;;7.20;99.90;;;;;;5046631;28;20032;-86
2022/04/24 04:46:19;;;;;;;17.17;8.63;;;7.10;99.90;;;;;;5050307;28;20039;-87
2022/04/24 04:48:44;;;;;;;19.60;9.10;;;7.10;99.90;;;;;;5052834;28;20068;-86
2022/04/24 04:51:10;;;;;;;20.17;8.85;;;7.10;99.90;;;;;;5031605;28;20033;-82
2022/04/24 04:53:36;;;;;;;17.95;7.75;;;7.10;99.90;;;;;;5055110;28;20031;-86
2022/04/24 04:56:02;;;;;;;19.10;8.02;;;7.10;99.90;;;;;;5060959;28;20083;-82
2022/04/24 04:58:27;;;;;;;16.60;7.53;;;7.10;99.90;;;;;;5060817;28;20036;-82
2022/04/24 05:00:53;;;;;;;16.88;6.78;;;7.00;99.90;;;;;;5057740;28;20033;-87
2022/04/24 05:03:18;;;;;;;10.15;5.28;;;7.10;99.90;;;;;;5021061;28;20429;-87
2022/04/24 05:05:44;;;;;;;9.35;4.18;;;7.00;99.90;;;;;;5061849;28;20083;-86
2022/04/24 05:08:10;;;;;;;8.30;3.65;;;6.90;99.90;;;;;;5052239;28;20025;-87
2022/04/24 05:10:35;;;;;;;8.52;3.53;;;6.90;99.90;;;;;;5069715;28;20029;-86
2022/04/24 05:13:01;;;;;;;5.95;3.25;;;6.80;99.90;;;;;;5044907;28;20395;-86
2022/04/24 05:15:27;;;;;;;3.47;1.63;;;6.80;99.90;;;;;;5049425;28;20033;-82
2022/04/24 05:17:52;;;;;;;2.75;1.80;;;6.80;99.90;;;;;;5043894;28;20044;-82
2022/04/24 05:20:18;;;;;;;3.53;1.70;;;6.80;99.90;;;;;;5061360;28;20033;-82
2022/04/24 05:22:47;;;;;;;2.95;1.40;;;6.80;99.90;;;;;;5064320;28;20104;-82
2022/04/24 05:25:14;;;;;;;1.60;1.20;;;6.80;99.90;;;;;;5082014;28;20032;-86
2022/04/24 05:27:40;;;;;;;1.35;1.00;;;6.80;99.90;;;;;;5067175;28;20460;-85
2022/04/24 05:30:08;;;;;;;2.13;1.30;;;6.70;99.90;;;;;;5077008;28;20226;-86
2022/04/24 05:32:48;;;;;;;2.90;1.20;;;6.80;99.90;;;;;;5072818;28;20123;-86
2022/04/24 05:35:14;;;;;;;;;;;6.80;99.90;;;;;;5051904;28;20459;-82
2022/04/24 05:37:40;;;;;;;2.22;1.25;;;6.70;99.90;;;;;;5057575;28;19912;-82
2022/04/24 05:40:07;;;;;;;2.03;1.10;;;6.60;99.90;;;;;;5054335;28;20122;-83
2022/04/24 05:42:33;;;;;;;1.67;1.00;;;6.70;99.90;;;;;;5055546;28;20028;-83
2022/04/24 05:45:04;;;;;;;1.73;0.93;;;6.70;99.90;;;;;;5048590;28;20123;-83
2022/04/24 05:47:30;;;;;;;2.50;1.15;;;6.60;99.90;;;;;;5058835;28;20107;-83
2022/04/24 05:49:56;;;;;;;1.23;0.80;;;6.70;99.90;;;;;;5052254;28;20207;-83
2022/04/24 05:52:21;;;;;;;1.67;1.00;;;6.80;99.90;;;;;;5067982;28;20029;-87
2022/04/24 05:54:47;;;;;;;1.67;1.30;;;6.70;99.90;;;;;;5059695;28;20426;-83
2022/04/24 05:57:13;;;;;;;1.75;1.00;;;6.70;99.90;;;;;;5059409;28;20024;-87
2022/04/24 05:59:38;;;;;;;2.67;1.25;;;6.70;99.90;;;;;;5059422;28;20072;-86
2022/04/24 06:02:04;;;;;;;1.17;0.85;;;6.70;99.90;;;;;;5067293;28;20063;-86
2022/04/24 06:04:30;;;;;;;0.90;0.63;;;6.70;99.90;;;;;;5035164;28;20122;-86
2022/04/24 06:06:55;;;;;;;0.60;0.60;;;6.50;99.90;;;;;;5062371;28;20031;-86
2022/04/24 06:09:21;;;;;;;0.80;0.63;;;6.50;99.90;;;;;;5052321;28;20424;-86
2022/04/24 06:11:47;;;;;;;0.60;0.60;;;6.60;99.90;;;;;;5062561;28;20085;-86
2022/04/24 06:14:14;;;;;;;0.98;0.70;;;6.60;99.90;;;;;;5029266;28;20036;-83
2022/04/24 06:16:39;;;;;;;0.43;0.40;;;6.50;99.90;;;;;;5051092;28;20086;-82
2022/04/24 06:19:05;;;;;;;1.02;0.50;;;6.50;99.90;;;;;;5051795;28;20037;-82
2022/04/24 06:21:30;;;;;;;0.45;0.40;;;6.50;99.90;;;;;;5053361;28;20452;-82
2022/04/24 06:23:56;;;;;;;0.57;0.57;;;6.50;99.90;;;;;;5056151;28;20909;-83
2022/04/24 06:26:22;;;;;;;1.65;0.45;;;6.50;99.90;;;;;;5064530;28;20029;-82
2022/04/24 06:28:47;;;;;;;0.88;0.50;;;6.50;99.90;;;;;;5055723;28;20392;-82
2022/04/24 06:31:13;;;;;;;0.70;0.57;;;6.40;99.90;;;;;;5071528;28;20069;-82
2022/04/24 06:33:39;;;;;;;0.30;0.30;;;6.40;99.90;;;;;;5060824;28;20389;-82
2022/04/24 06:36:04;;;;;;;0.45;0.38;;;6.50;99.90;;;;;;5060069;28;20037;-82
2022/04/24 06:38:30;;;;;;;0.60;0.43;;;6.40;99.90;;;;;;5040045;28;20025;-81
2022/04/24 06:40:56;;;;;;;2.15;0.50;;;6.50;99.90;;;;;;5082393;28;20600;-81
2022/04/24 06:43:21;;;;;;;0.77;0.47;;;6.60;99.90;;;;;;5057720;28;20025;-82
2022/04/24 06:45:47;;;;;;;0.63;0.45;;;6.60;99.90;;;;;;5060925;28;20074;-82
2022/04/24 06:48:15;;;;;;;0.50;0.50;;;6.60;99.90;;;;;;5057485;28;20033;-81
2022/04/24 06:50:42;;;;;;;0.47;0.43;;;6.60;99.90;;;;;;5049883;28;20453;-81
2022/04/24 06:53:10;;;;;;;1.00;0.40;;;6.60;99.90;;;;;;5062105;28;20029;-82
2022/04/24 06:55:39;;;;;;;0.50;0.50;;;6.70;99.90;;;;;;5047968;28;20056;-82
2022/04/24 06:58:09;;;;;;;0.77;0.45;;;6.60;99.90;;;;;;5054984;28;20045;-82
2022/04/24 07:00:37;;;;;;;0.95;0.55;;;6.70;99.90;;;;;;5040275;28;20454;-80
2022/04/24 07:03:10;;;;;;;0.85;0.40;;;6.80;99.90;;;;;;5065815;28;20159;-81
2022/04/24 07:05:36;;;;;;;0.65;0.50;;;6.80;99.90;;;;;;5059714;28;20025;-81
2022/04/24 07:08:02;;;;;;;0.85;0.50;;;6.80;99.90;;;;;;5050294;28;20033;-81
2022/04/24 07:10:28;;;;;;;1.52;0.50;;;6.90;99.90;;;;;;5061061;28;20365;-81
2022/04/24 07:12:54;;;;;;;0.68;0.47;;;7.00;99.90;;;;;;5062779;28;20246;-80
2022/04/24 07:15:23;;;;;;;0.30;0.30;;;7.00;99.90;;;;;;5047968;28;20032;-81
2022/04/24 07:17:51;;;;;;;0.77;0.60;;;7.00;99.90;;;;;;5058432;28;20036;-80
2022/04/24 07:20:18;;;;;;;0.80;0.55;;;7.10;99.90;;;;;;5046626;28;20404;-81
2022/04/24 07:22:49;;;;;;;0.30;0.30;;;7.20;99.90;;;;;;5055767;28;20207;-81
2022/04/24 07:25:17;;;;;;;6.63;0.75;;;7.20;99.90;;;;;;5064762;28;20055;-81
2022/04/24 07:27:43;;;;;;;1.15;0.50;;;7.30;99.90;;;;;;5057987;28;20057;-80
2022/04/24 07:30:13;;;;;;;0.57;0.45;;;7.40;99.90;;;;;;5060129;28;20063;-81
2022/04/24 07:32:53;;;;;;;0.40;0.40;;;7.50;99.90;;;;;;5074854;28;20250;-82
2022/04/24 07:35:24;;;;;;;0.35;0.35;;;7.40;99.90;;;;;;5050738;28;20051;-81
2022/04/24 07:37:51;;;;;;;0.45;0.40;;;7.40;99.90;;;;;;5056762;28;20037;-81
2022/04/24 07:40:19;;;;;;;2.63;0.40;;;7.70;99.90;;;;;;5060280;28;20025;-82
2022/04/24 07:42:48;;;;;;;0.52;0.38;;;7.80;99.90;;;;;;5058341;28;20821;-81
2022/04/24 07:45:40;;;;;;;0.45;0.45;;;7.70;99.90;;;;;;5045260;28;20093;-82
2022/04/24 07:48:07;;;;;;;0.95;0.40;;;7.80;99.90;;;;;;5048923;28;20045;-81
2022/04/24 07:50:35;;;;;;;0.40;0.40;;;7.70;99.90;;;;;;5054902;28;20167;-81
2022/04/24 07:53:02;;;;;;;0.63;0.63;;;7.60;99.90;;;;;;5079089;28;20041;-81
2022/04/24 07:55:29;;;;;;;0.68;0.30;;;7.70;99.90;;;;;;5046906;28;20044;-81
2022/04/24 07:57:58;;;;;;;0.93;0.85;;;7.60;99.90;;;;;;5046298;28;20068;-81
2022/04/24 08:00:29;;;;;;;0.52;0.50;;;7.60;99.90;;;;;;5047492;28;20122;-82
2022/04/24 08:03:04;;;;;;;0.30;0.30;;;7.80;99.90;;;;;;5042327;28;20028;-81
2022/04/24 08:05:36;;;;;;;2.53;0.50;;;7.70;99.90;;;;;;5075153;28;20555;-81
2022/04/24 08:08:04;;;;;;;0.75;0.50;;;7.80;99.90;;;;;;5050525;28;20051;-81
2022/04/24 08:10:33;;;;;;;1.40;0.70;;;7.90;99.90;;;;;;5046732;28;20029;-81
2022/04/24 08:12:59;;;;;;;0.55;0.32;;;7.90;99.90;;;;;;5050117;28;20029;-81
2022/04/24 08:15:28;;;;;;;0.75;0.50;;;7.90;99.90;;;;;;5060211;28;20032;-81
2022/04/24 08:17:53;;;;;;;0.50;0.45;;;8.10;99.90;;;;;;5065809;28;20028;-81
2022/04/24 08:20:19;;;;;;;0.35;0.32;;;7.90;99.90;;;;;;5039296;28;20055;-81
2022/04/24 08:22:50;;;;;;;1.00;0.55;;;8.00;99.90;;;;;;5041083;28;20037;-80
2022/04/24 08:25:21;;;;;;;0.40;0.40;;;8.20;99.90;;;;;;5044976;28;20041;-80
2022/04/24 08:27:48;;;;;;;0.52;0.47;;;8.40;99.90;;;;;;5055157;28;20021;-83
2022/04/24 08:30:14;;;;;;;0.90;0.40;;;8.50;99.90;;;;;;5059727;28;20108;-81
2022/04/24 08:32:41;;;;;;;0.30;0.30;;;8.50;99.90;;;;;;5070577;28;20048;-82
2022/04/24 08:35:08;;;;;;;0.40;0.40;;;8.40;99.90;;;;;;5051682;28;20033;-82
2022/04/24 08:37:34;;;;;;;0.43;0.40;;;8.40;99.90;;;;;;5063184;28;20455;-81
2022/04/24 08:40:00;;;;;;;0.40;0.40;;;8.30;99.90;;;;;;5059727;28;20031;-81
2022/04/24 08:42:27;;;;;;;0.45;0.45;;;8.30;99.90;;;;;;5030416;28;20029;-82
2022/04/24 08:44:56;;;;;;;0.85;0.68;;;8.30;99.90;;;;;;5058811;28;20020;-81
2022/04/24 08:47:23;;;;;;;0.65;0.57;;;8.50;99.90;;;;;;5051600;28;20523;-84
2022/04/24 08:51:38;;;;;;;0.40;0.40;;;8.70;99.90;;;;;;5108555;27;20394;-82
2022/04/24 08:54:04;;;;;;;1.63;0.40;;;9.00;99.90;;;;;;5103466;28;20074;-82
2022/04/24 08:56:29;;;;;;;0.63;0.40;;;8.90;99.90;;;;;;5077000;28;20029;-83
2022/04/24 08:58:55;;;;;;;1.30;0.85;;;9.10;99.90;;;;;;5081806;28;20064;-82
2022/04/24 09:01:21;;;;;;;0.40;0.40;;;9.10;99.90;;;;;;5055442;28;20042;-82
2022/04/24 09:03:47;;;;;;;0.50;0.50;;;9.10;99.90;;;;;;5030910;28;20032;-80
2022/04/24 09:06:22;;;;;;;0.65;0.50;;;8.90;99.90;;;;;;5017441;28;20034;-80
2022/04/24 09:08:48;;;;;;;1.00;0.50;;;8.90;99.90;;;;;;5058484;28;20381;-83
2022/04/24 09:11:16;;;;;;;0.50;0.50;;;9.00;99.90;;;;;;5040772;28;20044;-82
2022/04/24 09:16:37;;;;;;;1.25;0.50;;;9.30;99.90;;;;;;5024296;28;20065;-81
2022/04/24 09:19:38;;;;;;;0.50;0.50;;;9.50;99.90;;;;;;5021735;28;20101;-81
2022/04/24 09:22:06;;;;;;;0.65;0.65;;;9.40;99.90;;;;;;4972933;28;20023;-81
2022/04/24 09:24:52;;;;;;;1.33;0.50;;;9.70;99.90;;;;;;5011492;28;20444;-81
2022/04/24 09:27:34;;;;;;;1.52;0.60;;;9.40;99.90;;;;;;5027583;28;20366;-81
2022/04/24 09:30:11;;;;;;;0.50;0.50;;;9.20;99.90;;;;;;5014884;28;20017;-81
2022/04/24 09:32:45;;;;;;;0.50;0.50;;;9.40;99.90;;;;;;5026150;28;20033;-81
2022/04/24 09:35:23;;;;;;;2.28;0.50;;;9.40;99.90;;;;;;5057775;28;20083;-81
2022/04/24 09:37:48;;;;;;;0.77;0.52;;;9.20;99.90;;;;;;5022423;28;20026;-81
2022/04/24 09:40:14;;;;;;;0.80;0.60;;;9.50;99.90;;;;;;5036583;28;20987;-82
2022/04/24 09:42:50;;;;;;;0.77;0.70;;;9.60;99.90;;;;;;5056546;28;20030;-82
2022/04/24 09:45:24;;;;;;;0.80;0.75;;;9.70;99.90;;;;;;5026124;28;20322;-82
2022/04/24 09:47:59;;;;;;;1.40;0.85;;;10.00;99.90;;;;;;5015454;28;20036;-82
2022/04/24 09:50:29;;;;;;;1.02;0.77;;;9.60;99.90;;;;;;5029921;28;20074;-82
2022/04/24 09:52:57;;;;;;;1.65;0.90;;;9.80;99.90;;;;;;5029093;28;20545;-82
2022/04/24 09:55:27;;;;;;;0.65;0.50;;;9.60;99.90;;;;;;5037026;28;20034;-83
2022/04/24 09:57:54;;;;;;;0.75;0.55;;;9.80;99.90;;;;;;5025111;28;20097;-81
2022/04/24 10:00:21;;;;;;;0.40;0.40;;;10.10;99.90;;;;;;5038006;28;20037;-83
2022/04/24 10:02:50;;;;;;;0.63;0.55;;;9.70;99.90;;;;;;5029213;28;20034;-82
2022/04/24 10:05:17;;;;;;;0.82;0.60;;;9.90;99.90;;;;;;5038805;28;20421;-83
2022/04/24 10:07:44;;;;;;;0.70;0.60;;;9.90;99.90;;;;;;5019479;28;20444;-83
2022/04/24 10:10:11;;;;;;;1.35;0.70;;;10.20;99.90;;;;;;5035106;28;20029;-82
2022/04/24 10:12:37;;;;;;;0.77;0.68;;;10.50;99.90;;;;;;5030915;28;20034;-83
2022/04/24 10:15:13;;;;;;;1.02;0.80;;;10.60;99.90;;;;;;5017130;28;20079;-82
2022/04/24 10:17:56;;;;;;;1.20;0.90;;;10.30;99.90;;;;;;5000385;28;20031;-82
2022/04/24 10:20:41;;;;;;;1.17;0.75;;;10.40;99.90;;;;;;5039188;28;20063;-83
2022/04/24 10:23:08;;;;;;;0.55;0.52;;;10.40;99.90;;;;;;5010807;28;20472;-82
2022/04/24 10:25:40;;;;;;;0.93;0.50;;;10.20;99.90;;;;;;5017916;28;20276;-83
2022/04/24 10:28:35;;;;;;;1.27;0.60;;;10.20;99.90;;;;;;5018652;28;20033;-83
2022/04/24 10:31:03;;;;;;;0.60;0.60;;;10.40;99.90;;;;;;5021319;28;20537;-82
2022/04/24 10:33:32;;;;;;;1.10;0.60;;;10.60;99.90;;;;;;5015432;28;20037;-83
2022/04/24 10:36:12;;;;;;;1.33;0.50;;;10.80;99.90;;;;;;5055080;28;20101;-84
2022/04/24 10:38:47;;;;;;;1.42;0.70;;;10.40;99.90;;;;;;5003436;28;20864;-84
2022/04/24 10:41:18;;;;;;;1.08;0.98;;;10.20;99.90;;;;;;5016393;28;20080;-83
2022/04/24 10:43:49;;;;;;;1.13;1.00;;;10.20;99.90;;;;;;5015538;28;20098;-84
2022/04/24 10:46:29;;;;;;;1.45;0.80;;;10.40;99.90;;;;;;5046326;28;20124;-84
2022/04/24 10:49:17;;;;;;;0.97;0.80;;;10.60;99.90;;;;;;5025548;28;20029;-83
2022/04/24 10:51:45;;;;;;;1.00;0.80;;;10.80;99.90;;;;;;5057868;28;20304;-81
2022/04/24 10:54:16;;;;;;;1.05;0.80;;;10.90;99.90;;;;;;5025381;28;20022;-83
2022/04/24 10:56:50;;;;;;;1.35;0.80;;;10.90;99.90;;;;;;5022680;28;20049;-85
2022/04/24 10:59:18;;;;;;;0.70;0.60;;;11.50;99.90;;;;;;5016141;28;20688;-85
2022/04/24 11:01:50;;;;;;;0.60;0.60;;;11.40;99.90;;;;;;5045951;28;20569;-85
2022/04/24 11:04:17;;;;;;;1.15;0.82;;;11.20;99.90;;;;;;5014421;28;20124;-85
2022/04/24 11:07:00;;;;;;;1.00;0.77;;;11.10;99.90;;;;;;5015553;28;20105;-85
2022/04/24 11:09:36;;;;;;;1.70;0.77;;;11.00;99.90;;;;;;5014356;28;20377;-85
2022/04/24 11:12:07;;;;;;;1.48;1.17;;;11.20;99.90;;;;;;5006536;28;20022;-83
2022/04/24 11:14:34;;;;;;;0.82;0.73;;;11.60;99.90;;;;;;5003324;28;20061;-83
2022/04/24 11:17:01;;;;;;;0.80;0.80;;;11.70;99.90;;;;;;5017646;28;20094;-85
2022/04/24 11:19:33;;;;;;;0.60;0.60;;;12.00;99.90;;;;;;5014273;28;20442;-86
2022/04/24 11:22:00;;;;;;;0.40;0.40;;;12.10;99.90;;;;;;5005785;28;20255;-85
2022/04/24 11:24:31;;;;;;;0.60;0.60;;;12.00;98.90;;;;;;5044064;28;20642;-85
2022/04/24 11:27:00;;;;;;;;;;;11.90;97.70;;;;;;5017594;28;20026;-85
2022/04/24 11:29:26;;;;;;;0.63;0.60;;;12.10;98.60;;;;;;5013288;28;20389;-85
2022/04/24 11:31:53;;;;;;;0.40;0.40;;;12.20;97.00;;;;;;5046037;28;20050;-83
2022/04/24 11:34:24;;;;;;;0.50;0.50;;;12.30;95.50;;;;;;5012512;28;20037;-83
2022/04/24 11:36:54;;;;;;;0.43;0.43;;;12.50;96.00;;;;;;5022619;28;20538;-83
2022/04/24 11:39:20;;;;;;;0.50;0.40;;;12.00;96.10;;;;;;5041940;28;20037;-84
2022/04/24 11:41:46;;;;;;;1.17;0.50;;;12.20;97.60;;;;;;5035037;28;20121;-86
2022/04/24 11:50:13;;;;;;;0.40;0.40;;;12.20;96.00;;;;;;5031167;28;20060;-85
2022/04/24 11:52:41;;;;;;;0.73;0.63;;;12.50;95.90;;;;;;5023439;28;20077;-85
2022/04/24 11:55:21;;;;;;;0.52;0.52;;;12.40;95.00;;;;;;4998610;23;20043;-82
2022/04/24 11:57:57;;;;;;;0.73;0.73;;;12.40;94.90;;;;;;4965852;28;20033;-81
2022/04/24 12:00:37;;;;;;;1.33;0.73;;;12.30;98.80;;;;;;4957584;28;20045;-84
2022/04/24 12:03:05;;;;;;;0.30;0.30;;;12.00;99.70;;;;;;4979402;28;20041;-80
2022/04/24 12:05:32;;;;;;;1.13;0.50;;;12.40;99.90;;;;;;4963599;28;20105;-82
2022/04/24 12:07:57;;;;;;;0.30;0.30;;;12.60;99.20;;;;;;4968471;28;20034;-82
2022/04/24 12:10:24;;;;;;;0.50;0.50;;;12.50;96.90;;;;;;4968549;28;20035;-82
2022/04/24 12:12:51;;;;;;;0.40;0.40;;;12.70;99.90;;;;;;4968183;28;20033;-82
2022/04/24 12:15:20;;;;;;;0.40;0.40;;;12.60;98.20;;;;;;4962535;28;20037;-82
2022/04/24 12:17:54;;;;;;;0.57;0.43;;;12.20;99.60;;;;;;4966684;28;20117;-85
2022/04/24 12:20:22;;;;;;;0.40;0.40;;;11.70;99.90;;;;;;4983797;28;20031;-95
2022/04/24 12:22:48;;;;;;;0.50;0.40;;;11.50;99.90;;;;;;4967799;28;20031;-80
2022/04/24 12:25:17;;;;;;;0.30;0.30;;;11.60;99.90;;;;;;4965562;28;20081;-80
2022/04/24 12:27:57;;;;;;;0.77;0.30;;;12.30;99.90;;;;;;4962663;28;20126;-81
2022/04/24 12:30:31;;;;;;;0.35;0.35;;;12.10;98.50;;;;;;4964953;28;20602;-81
2022/04/24 12:33:05;;;;;;;0.60;0.30;;;11.80;99.90;;;;;;4966323;28;20058;-82
2022/04/24 12:35:35;;;;;;;0.70;0.40;;;11.50;99.90;;;;;;4963081;28;20034;-81
2022/04/24 12:38:12;;;;;;;0.73;0.30;;;11.40;98.20;;;;;;4971744;28;20031;-80
2022/04/24 12:40:37;;;;;;;0.40;0.40;;;11.70;98.60;;;;;;4967149;28;20065;-80
2022/04/24 12:43:03;;;;;;;0.60;0.30;;;12.10;96.90;;;;;;4966842;28;20062;-80
2022/04/24 12:45:32;;;;;;;0.60;0.55;;;12.50;97.70;;;;;;4965315;28;20117;-80
2022/04/24 12:47:59;;;;;;;0.35;0.30;;;12.70;99.50;;;;;;4965476;28;20041;-81
2022/04/24 12:50:24;;;;;;;1.20;0.40;;;12.40;98.40;;;;;;4966028;28;20767;-81
2022/04/24 12:52:50;;;;;;;0.65;0.40;;;11.90;98.20;;;;;;4966363;28;20066;-79
2022/04/24 12:55:16;;;;;;;0.60;0.60;;;11.40;97.40;;;;;;4979459;28;20139;-80
2022/04/24 12:57:42;;;;;;;0.82;0.47;;;11.60;99.90;;;;;;4966896;28;20675;-80
2022/04/24 13:00:08;;;;;;;0.30;0.28;;;11.30;99.90;;;;;;4964576;28;20039;-80